RYR87J EHAM-EIDW
Flight info
| Callsign | RYR87J |
|---|---|
| Flight time | N/A |
| Altitude | 35000 |
| Route | BERGI L60 PENIL UL28 LELDO M145 BAGSO BAGSO4L |
| Aircraft | B38M/M-SDE1FGHILORVWXY/HB1 |
Departure
| Time | 2026-04-30 13:56 |
|---|---|
| Airport | Amsterdam Airport Schiphol (EHAM) |
Arrival
| Time | N/A |
|---|---|
| Airport | Dublin Airport (EIDW) |
| Time | Latitude | Longitude | Altitude | Speed | Heading |
|---|---|---|---|---|---|
| 2026-04-30 13:48 | 52.30971 | 4.75294 | -1 ft | 0 kts | 148° |
| 2026-04-30 13:49 | 52.30976 | 4.75289 | -1 ft | 2 kts | 145° |
| 2026-04-30 13:49 | 52.30989 | 4.75273 | 0 ft | 2 kts | 136° |
| 2026-04-30 13:50 | 52.30999 | 4.75253 | 0 ft | 2 kts | 110° |
| 2026-04-30 13:50 | 52.30997 | 4.75218 | 1 ft | 0 kts | 59° |
| 2026-04-30 13:52 | 52.31009 | 4.75251 | 0 ft | 8 kts | 60° |
| 2026-04-30 13:52 | 52.31049 | 4.75357 | -1 ft | 15 kts | 58° |
| 2026-04-30 13:52 | 52.31128 | 4.75492 | -1 ft | 17 kts | 15° |
| 2026-04-30 13:52 | 52.31254 | 4.75485 | -1 ft | 19 kts | 357° |
| 2026-04-30 13:53 | 52.31381 | 4.75475 | -2 ft | 17 kts | 357° |
| 2026-04-30 13:53 | 52.31493 | 4.75458 | -2 ft | 11 kts | 338° |
| 2026-04-30 13:53 | 52.31509 | 4.75415 | -2 ft | 3 kts | 283° |
| 2026-04-30 13:53 | 52.31510 | 4.75368 | -2 ft | 6 kts | 268° |
| 2026-04-30 13:54 | 52.31507 | 4.75272 | -2 ft | 11 kts | 266° |
| 2026-04-30 13:54 | 52.31502 | 4.75127 | -2 ft | 15 kts | 266° |
| 2026-04-30 13:54 | 52.31495 | 4.74935 | -2 ft | 19 kts | 266° |
| 2026-04-30 13:54 | 52.31495 | 4.74720 | 0 ft | 16 kts | 290° |
| 2026-04-30 13:55 | 52.31562 | 4.74660 | -1 ft | 4 kts | 358° |
| 2026-04-30 13:55 | 52.31563 | 4.74660 | -1 ft | 0 kts | 358° |
| 2026-04-30 13:55 | 52.31578 | 4.74659 | 0 ft | 9 kts | 358° |
| 2026-04-30 13:55 | 52.31661 | 4.74710 | 1 ft | 10 kts | 59° |
| 2026-04-30 13:56 | 52.31673 | 4.74876 | -3 ft | 39 kts | 88° |
| 2026-04-30 13:56 | 52.31693 | 4.75757 | 0 ft | 113 kts | 86° |
| 2026-04-30 13:56 | 52.31737 | 4.77377 | 12 ft | 168 kts | 89° |
| 2026-04-30 13:56 | 52.31799 | 4.79185 | 769 ft | 153 kts | 91° |
| 2026-04-30 13:57 | 52.31998 | 4.80933 | 1111 ft | 170 kts | 61° |
| 2026-04-30 13:57 | 52.33067 | 4.82036 | 1397 ft | 194 kts | 24° |
| 2026-04-30 13:57 | 52.34436 | 4.81939 | 1726 ft | 208 kts | 350° |
| 2026-04-30 13:57 | 52.35853 | 4.81023 | 2184 ft | 234 kts | 344° |
| 2026-04-30 13:58 | 52.37437 | 4.79930 | 2679 ft | 260 kts | 343° |
| 2026-04-30 13:58 | 52.40451 | 4.76387 | 3434 ft | 290 kts | 318° |
| 2026-04-30 13:58 | 52.41817 | 4.74088 | 3789 ft | 294 kts | 317° |
| 2026-04-30 13:59 | 52.43265 | 4.71692 | 4142 ft | 298 kts | 318° |
| 2026-04-30 13:59 | 52.44246 | 4.70109 | 4378 ft | 298 kts | 319° |
| 2026-04-30 13:59 | 52.45726 | 4.67721 | 4750 ft | 299 kts | 319° |
| 2026-04-30 13:59 | 52.47393 | 4.65748 | 5235 ft | 297 kts | 340° |
| 2026-04-30 14:00 | 52.49931 | 4.64038 | 5740 ft | 299 kts | 345° |
| 2026-04-30 14:00 | 52.53967 | 4.61518 | 6491 ft | 333 kts | 344° |
| 2026-04-30 14:00 | 52.55459 | 4.60558 | 6759 ft | 347 kts | 343° |
| 2026-04-30 14:01 | 52.57747 | 4.59064 | 7101 ft | 364 kts | 343° |
| 2026-04-30 14:01 | 52.60149 | 4.57509 | 7466 ft | 374 kts | 343° |
| 2026-04-30 14:01 | 52.62593 | 4.55924 | 7815 ft | 379 kts | 343° |
| 2026-04-30 14:01 | 52.65054 | 4.54316 | 8165 ft | 382 kts | 343° |
| 2026-04-30 14:02 | 52.67455 | 4.52411 | 8395 ft | 387 kts | 330° |
| 2026-04-30 14:02 | 52.69386 | 4.49337 | 8556 ft | 390 kts | 310° |
| 2026-04-30 14:02 | 52.70962 | 4.45706 | 8867 ft | 391 kts | 308° |
| 2026-04-30 14:02 | 52.72491 | 4.41998 | 9427 ft | 393 kts | 307° |
| 2026-04-30 14:03 | 52.74024 | 4.38232 | 10037 ft | 397 kts | 307° |
| 2026-04-30 14:03 | 52.75355 | 4.34219 | 10492 ft | 399 kts | 293° |
| 2026-04-30 14:03 | 52.76275 | 4.29888 | 11025 ft | 403 kts | 291° |
| 2026-04-30 14:03 | 52.77149 | 4.25486 | 11598 ft | 405 kts | 290° |
| 2026-04-30 14:04 | 52.78010 | 4.21041 | 12185 ft | 408 kts | 290° |
| 2026-04-30 14:04 | 52.78871 | 4.16565 | 12760 ft | 411 kts | 290° |
| 2026-04-30 14:04 | 52.79764 | 4.12066 | 13380 ft | 414 kts | 291° |
| 2026-04-30 14:04 | 52.80691 | 4.07546 | 13995 ft | 417 kts | 291° |
| 2026-04-30 14:05 | 52.81614 | 4.02981 | 14548 ft | 420 kts | 291° |
| 2026-04-30 14:05 | 52.82526 | 3.98362 | 15107 ft | 424 kts | 290° |
| 2026-04-30 14:05 | 52.83443 | 3.93712 | 15673 ft | 428 kts | 290° |
| 2026-04-30 14:05 | 52.84380 | 3.89023 | 16245 ft | 431 kts | 291° |
| 2026-04-30 14:06 | 52.85323 | 3.84292 | 16831 ft | 435 kts | 290° |
| 2026-04-30 14:06 | 52.87193 | 3.74779 | 18026 ft | 440 kts | 290° |
| 2026-04-30 14:07 | 52.89112 | 3.65023 | 19192 ft | 445 kts | 290° |
| 2026-04-30 14:07 | 52.90067 | 3.60138 | 19744 ft | 447 kts | 290° |
| 2026-04-30 14:07 | 52.91011 | 3.55298 | 20311 ft | 448 kts | 290° |
| 2026-04-30 14:08 | 52.92922 | 3.45468 | 21449 ft | 449 kts | 290° |
| 2026-04-30 14:08 | 52.93874 | 3.40543 | 22003 ft | 448 kts | 290° |
| 2026-04-30 14:08 | 52.95767 | 3.30716 | 23215 ft | 447 kts | 290° |
| 2026-04-30 14:09 | 52.96709 | 3.25809 | 23838 ft | 445 kts | 290° |
| 2026-04-30 14:09 | 52.97650 | 3.20907 | 24211 ft | 449 kts | 290° |
| 2026-04-30 14:09 | 52.99586 | 3.10806 | 24295 ft | 471 kts | 290° |
| 2026-04-30 14:10 | 53.00572 | 3.05619 | 24294 ft | 471 kts | 290° |
| 2026-04-30 14:10 | 53.01557 | 3.00426 | 24323 ft | 472 kts | 289° |
| 2026-04-30 14:10 | 53.02541 | 2.95226 | 24326 ft | 472 kts | 289° |
| 2026-04-30 14:10 | 53.03521 | 2.90030 | 24327 ft | 471 kts | 289° |
| 2026-04-30 14:11 | 53.04499 | 2.84830 | 24328 ft | 472 kts | 289° |
| 2026-04-30 14:11 | 53.05475 | 2.79628 | 24321 ft | 471 kts | 289° |
| 2026-04-30 14:11 | 53.06450 | 2.74419 | 24323 ft | 472 kts | 289° |
| 2026-04-30 14:11 | 53.07423 | 2.69205 | 24325 ft | 472 kts | 289° |
| 2026-04-30 14:12 | 53.08393 | 2.63990 | 24320 ft | 472 kts | 289° |
| 2026-04-30 14:12 | 53.09360 | 2.58774 | 24319 ft | 472 kts | 289° |
| 2026-04-30 14:12 | 53.10326 | 2.53558 | 24324 ft | 472 kts | 289° |
| 2026-04-30 14:12 | 53.11132 | 2.48277 | 24245 ft | 470 kts | 280° |
| 2026-04-30 14:13 | 53.11571 | 2.42902 | 24293 ft | 469 kts | 279° |
| 2026-04-30 14:13 | 53.12000 | 2.37518 | 24325 ft | 470 kts | 279° |
| 2026-04-30 14:13 | 53.12449 | 2.32131 | 24325 ft | 470 kts | 279° |
| 2026-04-30 14:13 | 53.12897 | 2.26747 | 24321 ft | 470 kts | 279° |
| 2026-04-30 14:14 | 53.13331 | 2.21355 | 24307 ft | 470 kts | 279° |
| 2026-04-30 14:14 | 53.13758 | 2.15962 | 24324 ft | 470 kts | 279° |
| 2026-04-30 14:14 | 53.14191 | 2.10568 | 24323 ft | 470 kts | 279° |
| 2026-04-30 14:14 | 53.14624 | 2.05176 | 24322 ft | 470 kts | 279° |
| 2026-04-30 14:15 | 53.15050 | 1.99780 | 24316 ft | 470 kts | 278° |
| 2026-04-30 14:15 | 53.15472 | 1.94376 | 24317 ft | 470 kts | 278° |
| 2026-04-30 14:15 | 53.15894 | 1.88982 | 24319 ft | 470 kts | 278° |
| 2026-04-30 14:15 | 53.16315 | 1.83588 | 24316 ft | 469 kts | 278° |
| 2026-04-30 14:16 | 53.16732 | 1.78191 | 24309 ft | 469 kts | 278° |
| 2026-04-30 14:16 | 53.17141 | 1.72837 | 24316 ft | 469 kts | 278° |
| 2026-04-30 14:16 | 53.17553 | 1.67441 | 24311 ft | 469 kts | 278° |
| 2026-04-30 14:16 | 53.17963 | 1.62047 | 24310 ft | 469 kts | 278° |
| 2026-04-30 14:17 | 53.18370 | 1.56646 | 24311 ft | 469 kts | 278° |
| 2026-04-30 14:17 | 53.18774 | 1.51246 | 24308 ft | 469 kts | 278° |
| 2026-04-30 14:17 | 53.19175 | 1.45862 | 24308 ft | 468 kts | 278° |
| 2026-04-30 14:17 | 53.19569 | 1.40538 | 24310 ft | 469 kts | 278° |
| 2026-04-30 14:18 | 53.19966 | 1.35143 | 24315 ft | 469 kts | 278° |
| 2026-04-30 14:18 | 53.20360 | 1.29744 | 24305 ft | 469 kts | 278° |
| 2026-04-30 14:18 | 53.21141 | 1.18947 | 24307 ft | 469 kts | 278° |
| 2026-04-30 14:19 | 53.21913 | 1.08143 | 24302 ft | 469 kts | 277° |
| 2026-04-30 14:19 | 53.22295 | 1.02743 | 24303 ft | 469 kts | 277° |
| 2026-04-30 14:19 | 53.22675 | 0.97331 | 24295 ft | 469 kts | 277° |
| 2026-04-30 14:20 | 53.23052 | 0.91934 | 24294 ft | 470 kts | 277° |
| 2026-04-30 14:20 | 53.23426 | 0.86520 | 24294 ft | 468 kts | 277° |
| 2026-04-30 14:20 | 53.24171 | 0.75689 | 24279 ft | 467 kts | 276° |
| 2026-04-30 14:21 | 53.24537 | 0.70276 | 24284 ft | 468 kts | 277° |
| 2026-04-30 14:21 | 53.24901 | 0.64887 | 24273 ft | 470 kts | 277° |
| 2026-04-30 14:21 | 53.25624 | 0.54069 | 24284 ft | 469 kts | 276° |
| 2026-04-30 14:22 | 53.25981 | 0.48675 | 24284 ft | 468 kts | 276° |
| 2026-04-30 14:22 | 53.26686 | 0.37867 | 24277 ft | 470 kts | 277° |
| 2026-04-30 14:22 | 53.27037 | 0.32467 | 24280 ft | 468 kts | 276° |
| 2026-04-30 14:23 | 53.27729 | 0.21639 | 24280 ft | 469 kts | 277° |
| 2026-04-30 14:23 | 53.28412 | 0.10826 | 24269 ft | 469 kts | 276° |
| 2026-04-30 14:24 | 53.29214 | 0.00018 | 24355 ft | 470 kts | 281° |
| 2026-04-30 14:24 | 53.29785 | -0.05344 | 24256 ft | 469 kts | 280° |
| 2026-04-30 14:25 | 53.30888 | -0.16093 | 24256 ft | 469 kts | 280° |
| 2026-04-30 14:25 | 53.31995 | -0.26839 | 24256 ft | 469 kts | 280° |
| 2026-04-30 14:26 | 53.33085 | -0.37592 | 24255 ft | 469 kts | 280° |
| 2026-04-30 14:26 | 53.33626 | -0.42968 | 24251 ft | 469 kts | 280° |
| 2026-04-30 14:26 | 53.34717 | -0.53743 | 24253 ft | 470 kts | 280° |
| 2026-04-30 14:27 | 53.35256 | -0.59138 | 24254 ft | 469 kts | 279° |
| 2026-04-30 14:27 | 53.35790 | -0.64520 | 24252 ft | 469 kts | 279° |
| 2026-04-30 14:27 | 53.36323 | -0.69905 | 24253 ft | 468 kts | 279° |
| 2026-04-30 14:28 | 53.37379 | -0.80660 | 24257 ft | 468 kts | 279° |
| 2026-04-30 14:28 | 53.37904 | -0.86045 | 24248 ft | 469 kts | 279° |
| 2026-04-30 14:28 | 53.38427 | -0.91430 | 24250 ft | 468 kts | 279° |
| 2026-04-30 14:28 | 53.38946 | -0.96816 | 24250 ft | 468 kts | 279° |
| 2026-04-30 14:29 | 53.39972 | -1.07601 | 24241 ft | 470 kts | 279° |
| 2026-04-30 14:29 | 53.40830 | -1.16583 | 24240 ft | 470 kts | 279° |
| 2026-04-30 14:30 | 53.42515 | -1.34622 | 24232 ft | 469 kts | 279° |
| 2026-04-30 14:31 | 53.43518 | -1.45439 | 24220 ft | 469 kts | 278° |
| 2026-04-30 14:31 | 53.44505 | -1.56263 | 24236 ft | 470 kts | 278° |
| 2026-04-30 14:31 | 53.45001 | -1.61713 | 24226 ft | 472 kts | 278° |
| 2026-04-30 14:32 | 53.45979 | -1.72526 | 24211 ft | 472 kts | 278° |
| 2026-04-30 14:32 | 53.46465 | -1.77971 | 24211 ft | 472 kts | 278° |
| 2026-04-30 14:32 | 53.46956 | -1.83484 | 24211 ft | 471 kts | 278° |
| 2026-04-30 14:33 | 53.47431 | -1.88855 | 24200 ft | 472 kts | 278° |
| 2026-04-30 14:33 | 53.48384 | -1.99746 | 24202 ft | 472 kts | 278° |
| 2026-04-30 14:33 | 53.48858 | -2.05192 | 24200 ft | 471 kts | 278° |
| 2026-04-30 14:34 | 53.49330 | -2.10648 | 24189 ft | 473 kts | 277° |
| 2026-04-30 14:34 | 53.49799 | -2.16114 | 24188 ft | 472 kts | 277° |
| 2026-04-30 14:34 | 53.50265 | -2.21571 | 24187 ft | 472 kts | 277° |
| 2026-04-30 14:34 | 53.50729 | -2.27028 | 24187 ft | 472 kts | 277° |
| 2026-04-30 14:35 | 53.51501 | -2.36192 | 24180 ft | 473 kts | 277° |
| 2026-04-30 14:35 | 53.52108 | -2.43444 | 24179 ft | 473 kts | 277° |
| 2026-04-30 14:35 | 53.52562 | -2.48915 | 24171 ft | 473 kts | 277° |
| 2026-04-30 14:36 | 53.53013 | -2.54387 | 24171 ft | 473 kts | 277° |
| 2026-04-30 14:36 | 53.53463 | -2.59865 | 24186 ft | 473 kts | 276° |
| 2026-04-30 14:36 | 53.53911 | -2.65361 | 24171 ft | 475 kts | 276° |
| 2026-04-30 14:36 | 53.54357 | -2.70861 | 24160 ft | 475 kts | 276° |
| 2026-04-30 14:37 | 53.54801 | -2.76356 | 24157 ft | 474 kts | 276° |
| 2026-04-30 14:37 | 53.55242 | -2.81850 | 24164 ft | 474 kts | 276° |
| 2026-04-30 14:37 | 53.55679 | -2.87350 | 24165 ft | 474 kts | 276° |
| 2026-04-30 14:37 | 53.56115 | -2.92847 | 24167 ft | 475 kts | 276° |
| 2026-04-30 14:38 | 53.56549 | -2.98353 | 24167 ft | 475 kts | 276° |
| 2026-04-30 14:38 | 53.56980 | -3.03854 | 24166 ft | 474 kts | 276° |
| 2026-04-30 14:38 | 53.57407 | -3.09357 | 24166 ft | 474 kts | 276° |
| 2026-04-30 14:38 | 53.57833 | -3.14861 | 24170 ft | 476 kts | 275° |
| 2026-04-30 14:39 | 53.58015 | -3.17234 | 24169 ft | 476 kts | 275° |
| 2026-04-30 15:06 | 53.58843 | -3.28116 | 24166 ft | 475 kts | 275° |
| 2026-04-30 15:07 | 53.59686 | -3.39134 | 24155 ft | 474 kts | 275° |
| 2026-04-30 15:07 | 53.60497 | -3.50150 | 24146 ft | 475 kts | 275° |
| 2026-04-30 15:08 | 53.61316 | -3.61183 | 24128 ft | 475 kts | 275° |
| 2026-04-30 15:08 | 53.64325 | -3.77262 | 24124 ft | 484 kts | 290° |
| 2026-04-30 15:09 | 53.66840 | -3.87801 | 24122 ft | 485 kts | 290° |
| 2026-04-30 15:09 | 53.69349 | -3.98317 | 24124 ft | 483 kts | 290° |
| 2026-04-30 15:10 | 53.71622 | -4.08934 | 24017 ft | 476 kts | 279° |
| 2026-04-30 15:11 | 53.72593 | -4.30906 | 24125 ft | 470 kts | 271° |
| 2026-04-30 15:11 | 53.73014 | -4.41917 | 24116 ft | 469 kts | 270° |
| 2026-04-30 15:12 | 53.73591 | -4.58404 | 24117 ft | 468 kts | 270° |
| 2026-04-30 15:13 | 53.73966 | -4.69379 | 24135 ft | 468 kts | 270° |
| 2026-04-30 15:14 | 53.74689 | -4.91274 | 24113 ft | 468 kts | 270° |
| 2026-04-30 15:14 | 53.75208 | -5.07740 | 24108 ft | 468 kts | 270° |
| 2026-04-30 15:16 | 53.71466 | -5.33413 | 24107 ft | 452 kts | 249° |
| 2026-04-30 15:17 | 53.68236 | -5.53661 | 22536 ft | 439 kts | 266° |
| 2026-04-30 15:18 | 53.63640 | -5.74700 | 18650 ft | 371 kts | 206° |
| 2026-04-30 15:19 | 53.56646 | -5.73980 | 16089 ft | 347 kts | 146° |